createdAt,value
2023-04-11T00:00:46.263Z,197.20
2023-04-11T00:01:46.411Z,191.80
2023-04-11T00:02:46.603Z,193.12
2023-04-11T00:03:46.804Z,192.29
2023-04-11T00:04:46.767Z,195.77
2023-04-11T00:05:46.699Z,194.35
2023-04-11T00:06:46.803Z,192.95
2023-04-11T00:07:46.937Z,191.96
2023-04-11T00:08:47.003Z,194.79
2023-04-11T00:09:47.107Z,192.46
2023-04-11T00:10:47.223Z,193.80
2023-04-11T00:11:47.295Z,192.94
2023-04-11T00:12:47.374Z,192.72
2023-04-11T00:13:47.470Z,188.96
2023-04-11T00:14:47.540Z,195.90
2023-04-11T00:15:47.611Z,191.42
2023-04-11T00:16:47.691Z,192.88
2023-04-11T00:17:47.869Z,193.63
2023-04-11T00:18:47.794Z,196.04
2023-04-11T00:19:47.836Z,190.27
2023-04-11T00:20:47.892Z,193.31
2023-04-11T00:21:47.972Z,192.47
2023-04-11T00:22:48.068Z,195.54
2023-04-11T00:23:48.181Z,194.66
2023-04-11T00:24:48.257Z,194.39
2023-04-11T00:25:48.351Z,193.52
2023-04-11T00:26:48.386Z,190.08
2023-04-11T00:27:48.449Z,193.59
2023-04-11T00:28:48.520Z,193.03
2023-04-11T00:29:48.562Z,191.62
2023-04-11T00:30:48.633Z,194.28
2023-04-11T00:31:48.773Z,194.68
2023-04-11T00:32:48.800Z,193.51
2023-04-11T00:33:48.840Z,193.71
2023-04-11T00:34:48.923Z,192.25
2023-04-11T00:35:49.026Z,195.70
2023-04-11T00:36:49.171Z,194.82
2023-04-11T00:37:49.188Z,194.55
2023-04-11T00:38:49.286Z,197.40
2023-04-11T00:39:49.366Z,195.46
2023-04-11T00:40:49.458Z,195.59
2023-04-11T00:41:49.567Z,193.41
2023-04-11T00:42:49.685Z,192.29
2023-04-11T00:43:49.802Z,193.27
2023-04-11T00:44:49.809Z,191.79
2023-04-11T00:45:49.929Z,193.90
2023-04-11T00:46:50.012Z,190.45
2023-04-11T00:47:50.113Z,194.70
2023-04-11T00:48:50.175Z,193.01
2023-04-11T00:49:50.258Z,191.42
2023-04-11T00:50:50.347Z,193.26
2023-04-11T00:51:50.431Z,191.80
2023-04-11T00:52:50.520Z,195.91
2023-04-11T00:53:50.596Z,195.19
2023-04-11T00:54:50.698Z,188.59
2023-04-11T00:55:50.752Z,194.02
2023-04-11T00:56:50.847Z,198.82
2023-04-11T00:57:50.924Z,192.19
2023-04-11T00:58:51.006Z,191.65
2023-04-11T00:59:51.100Z,194.29
2023-04-11T01:00:51.192Z,193.27
2023-04-11T01:01:51.506Z,194.05
2023-04-11T01:02:51.589Z,193.30
2023-04-11T01:03:51.428Z,190.91
2023-04-11T01:04:51.463Z,191.01
2023-04-11T01:05:51.526Z,193.22
2023-04-11T01:06:51.609Z,189.90
2023-04-11T01:07:51.671Z,194.55
2023-04-11T01:08:51.762Z,189.30
2023-04-11T01:09:51.836Z,194.16
2023-04-11T01:10:51.923Z,193.30
2023-04-11T01:11:52.000Z,195.31
2023-04-11T01:12:52.052Z,192.74
2023-04-11T01:13:52.125Z,189.55
2023-04-11T01:14:52.197Z,192.30
2023-04-11T01:15:52.269Z,192.61
2023-04-11T01:16:52.368Z,194.99
2023-04-11T01:17:52.498Z,190.56
2023-04-11T01:18:52.499Z,192.62
2023-04-11T01:19:52.554Z,191.93
2023-04-11T01:20:52.602Z,192.88
2023-04-11T01:21:52.691Z,192.63
2023-04-11T01:22:52.751Z,192.59
2023-04-11T01:23:52.838Z,190.83
2023-04-11T01:24:52.900Z,193.77
2023-04-11T01:25:52.959Z,194.39
2023-04-11T01:26:53.019Z,193.09
2023-04-11T01:27:53.081Z,190.89
2023-04-11T01:28:53.325Z,192.11
2023-04-11T01:29:53.212Z,190.42
2023-04-11T01:30:53.336Z,194.62
2023-04-11T01:31:53.339Z,195.34
2023-04-11T01:32:53.436Z,191.88
2023-04-11T01:33:53.476Z,195.96
2023-04-11T01:34:53.530Z,191.73
2023-04-11T01:35:53.622Z,191.03
2023-04-11T01:36:53.649Z,192.20
2023-04-11T01:37:53.714Z,190.75
2023-04-11T01:38:53.970Z,193.07
2023-04-11T01:39:53.842Z,193.40
2023-04-11T01:40:53.911Z,192.27
2023-04-11T01:41:53.957Z,192.97
2023-04-11T01:42:54.024Z,190.43
2023-04-11T01:43:54.085Z,191.98
2023-04-11T01:44:54.153Z,193.89
2023-04-11T01:45:54.225Z,191.50
2023-04-11T01:46:54.276Z,193.89
2023-04-11T01:47:54.540Z,193.46
2023-04-11T01:48:54.606Z,195.03
2023-04-11T01:49:54.447Z,192.37
2023-04-11T01:50:54.510Z,196.10
2023-04-11T01:51:54.566Z,192.59
2023-04-11T01:52:54.633Z,192.24
2023-04-11T01:53:54.702Z,193.79
2023-04-11T01:54:54.758Z,195.41
2023-04-11T01:55:54.806Z,197.28
2023-04-11T01:56:54.900Z,193.49
2023-04-11T01:57:54.916Z,192.87
2023-04-11T01:58:55.248Z,192.35
2023-04-11T01:59:55.031Z,194.37
2023-04-11T02:00:55.097Z,192.52
2023-04-11T02:01:55.181Z,192.23
2023-04-11T02:02:55.370Z,193.11
2023-04-11T02:03:55.364Z,191.10
2023-04-11T02:04:55.312Z,190.79
2023-04-11T02:05:55.371Z,190.10
2023-04-11T02:06:55.421Z,194.56
2023-04-11T02:07:55.489Z,196.33
2023-04-11T02:08:55.771Z,194.41
2023-04-11T02:09:55.600Z,197.12
2023-04-11T02:10:55.675Z,194.58
2023-04-11T02:11:55.725Z,191.89
2023-04-11T02:12:55.808Z,194.27
2023-04-11T02:13:55.849Z,197.29
2023-04-11T02:14:55.901Z,194.08
2023-04-11T02:15:56.004Z,195.89
2023-04-11T02:16:56.048Z,194.05
2023-04-11T02:17:56.091Z,193.31
2023-04-11T02:18:56.247Z,194.30
2023-04-11T02:19:56.182Z,191.07
2023-04-11T02:20:56.240Z,193.19
2023-04-11T02:21:56.312Z,193.31
2023-04-11T02:22:56.355Z,192.90
2023-04-11T02:23:56.421Z,194.03
2023-04-11T02:24:56.464Z,195.55
2023-04-11T02:25:56.511Z,193.93
2023-04-11T02:26:56.566Z,192.28
2023-04-11T02:27:56.608Z,191.06
2023-04-11T02:28:56.785Z,195.56
2023-04-11T02:29:56.716Z,195.87
2023-04-11T02:30:56.882Z,198.09
2023-04-11T02:31:56.894Z,192.41
2023-04-11T02:32:56.875Z,194.39
2023-04-11T02:33:56.896Z,192.59
2023-04-11T02:34:56.953Z,191.83
2023-04-11T02:35:57.027Z,191.99
2023-04-11T02:36:57.041Z,194.99
2023-04-11T02:37:57.085Z,191.73
2023-04-11T02:38:57.321Z,195.00
2023-04-11T02:39:57.189Z,193.52
2023-04-11T02:40:57.267Z,192.11
2023-04-11T02:41:57.400Z,190.74
2023-04-11T02:42:57.356Z,191.23
2023-04-11T02:43:57.407Z,193.25
2023-04-11T02:44:57.477Z,195.48
2023-04-11T02:46:09.625Z,191.39
2023-04-11T02:46:58.556Z,191.61
2023-04-11T02:47:57.557Z,192.24
2023-04-11T02:48:57.835Z,192.52
2023-04-11T02:49:57.552Z,192.89
2023-04-11T02:50:57.556Z,193.39
2023-04-11T02:51:57.565Z,192.00
2023-04-11T02:52:57.561Z,190.03
2023-04-11T02:53:57.599Z,190.15
2023-04-11T02:54:57.583Z,191.50
2023-04-11T02:55:57.591Z,194.05
2023-04-11T02:56:57.613Z,190.62
2023-04-11T02:57:57.625Z,191.59
2023-04-11T02:58:58.096Z,193.17
2023-04-11T02:59:57.631Z,192.14
2023-04-11T03:00:57.650Z,193.24
2023-04-11T03:01:57.798Z,194.87
2023-04-11T03:02:57.784Z,194.24
2023-04-11T03:03:57.827Z,192.31
2023-04-11T03:04:57.827Z,192.94
2023-04-11T03:05:57.873Z,192.95
2023-04-11T03:06:57.883Z,193.36
2023-04-11T03:07:57.940Z,193.93
2023-04-11T03:08:58.185Z,191.54
2023-04-11T03:09:58.024Z,191.38
2023-04-11T03:10:58.053Z,192.40
2023-04-11T03:11:58.098Z,192.83
2023-04-11T03:12:58.145Z,195.49
2023-04-11T03:13:58.186Z,190.97
2023-04-11T03:14:58.224Z,193.47
2023-04-11T03:15:58.314Z,193.98
2023-04-11T03:16:58.301Z,196.45
2023-04-11T03:17:58.426Z,193.32
2023-04-11T03:18:58.408Z,190.70
2023-04-11T03:19:58.469Z,194.09
2023-04-11T03:20:58.495Z,193.50
2023-04-11T03:21:58.541Z,193.09
2023-04-11T03:22:58.586Z,192.74
2023-04-11T03:23:58.633Z,193.97
2023-04-11T03:24:58.683Z,192.98
2023-04-11T03:25:58.726Z,191.70
2023-04-11T03:26:58.792Z,194.38
2023-04-11T03:27:58.822Z,193.50
2023-04-11T03:28:58.866Z,194.11
2023-04-11T03:29:58.906Z,191.49
2023-04-11T03:30:58.967Z,194.42
2023-04-11T03:31:58.997Z,194.06
2023-04-11T03:32:59.090Z,194.11
2023-04-11T03:33:59.096Z,195.24
2023-04-11T03:34:59.129Z,194.06
2023-04-11T03:35:59.197Z,191.82
2023-04-11T03:36:59.223Z,194.26
2023-04-11T03:37:59.259Z,193.87
2023-04-11T03:38:59.316Z,191.92
2023-04-11T03:39:59.349Z,191.60
2023-04-11T03:40:59.396Z,195.05
2023-04-11T03:41:59.425Z,193.71
2023-04-11T03:42:59.482Z,195.36
2023-04-11T03:43:59.514Z,192.74
2023-04-11T03:44:59.562Z,192.29
2023-04-11T03:45:59.611Z,193.97
2023-04-11T03:46:59.707Z,191.07
2023-04-11T03:47:59.739Z,196.24
2023-04-11T03:48:59.746Z,192.57
2023-04-11T03:49:59.762Z,195.90
2023-04-11T03:50:59.804Z,193.79
2023-04-11T03:51:59.856Z,193.01
2023-04-11T03:52:59.894Z,194.37
2023-04-11T03:53:59.938Z,191.54
2023-04-11T03:54:59.976Z,190.98
2023-04-11T03:56:00.019Z,192.98
2023-04-11T03:57:00.067Z,193.84
2023-04-11T03:58:00.128Z,192.92
2023-04-11T03:59:00.147Z,189.73
2023-04-11T04:00:00.223Z,191.85
2023-04-11T04:01:00.215Z,192.90
2023-04-11T04:02:00.327Z,192.59
2023-04-11T04:03:00.424Z,192.30
2023-04-11T04:04:00.677Z,192.52
2023-04-11T04:05:00.421Z,192.56
2023-04-11T04:06:00.448Z,191.81
2023-04-11T04:07:00.464Z,191.08
2023-04-11T04:08:00.522Z,191.60
2023-04-11T04:09:00.556Z,193.75
2023-04-11T04:10:00.599Z,193.45
2023-04-11T04:11:00.630Z,194.25
2023-04-11T04:12:00.668Z,194.20
2023-04-11T04:13:00.720Z,194.59
2023-04-11T04:14:00.750Z,196.03
2023-04-11T04:15:01.058Z,194.87
2023-04-11T04:16:03.446Z,190.51
2023-04-11T04:17:00.884Z,196.39
2023-04-11T04:18:00.879Z,194.56
2023-04-11T04:19:00.873Z,193.22
2023-04-11T04:20:00.890Z,195.84
2023-04-11T04:21:00.877Z,191.89
2023-04-11T04:22:00.893Z,190.53
2023-04-11T04:23:00.899Z,190.95
2023-04-11T04:24:00.925Z,194.53
2023-04-11T04:25:00.912Z,192.81
2023-04-11T04:26:00.913Z,194.13
2023-04-11T04:27:00.945Z,191.61
2023-04-11T04:28:00.957Z,193.65
2023-04-11T04:29:00.938Z,193.00
2023-04-11T04:30:03.561Z,195.18
2023-04-11T04:31:00.963Z,195.34
2023-04-11T04:32:00.983Z,195.45
2023-04-11T04:33:01.035Z,194.53
2023-04-11T04:34:00.997Z,195.93
2023-04-11T04:35:01.013Z,192.61
2023-04-11T04:36:01.052Z,193.66
2023-04-11T04:37:01.018Z,193.17
2023-04-11T04:38:01.029Z,192.71
2023-04-11T04:39:01.047Z,193.00
2023-04-11T04:40:01.067Z,194.07
2023-04-11T04:41:01.050Z,192.97
2023-04-11T04:42:01.069Z,197.36
2023-04-11T04:43:01.085Z,192.56
2023-04-11T04:44:01.166Z,194.24
2023-04-11T04:45:01.118Z,196.04
2023-04-11T04:46:01.139Z,192.47
2023-04-11T04:47:01.136Z,194.67
2023-04-11T04:48:01.164Z,190.96
2023-04-11T04:49:02.297Z,194.30
2023-04-11T04:50:01.169Z,194.03
2023-04-11T04:51:01.181Z,194.40
2023-04-11T04:52:01.191Z,195.54
2023-04-11T04:53:01.213Z,194.26
2023-04-11T04:54:01.229Z,195.03
2023-04-11T04:55:01.321Z,191.54
2023-04-11T04:56:01.259Z,192.44
2023-04-11T04:57:01.250Z,192.68
2023-04-11T04:58:01.248Z,194.40
2023-04-11T04:59:01.258Z,193.49
2023-04-11T05:00:01.261Z,196.55
2023-04-11T05:01:01.310Z,193.75
2023-04-11T05:02:02.116Z,194.27
2023-04-11T05:03:01.382Z,196.20
2023-04-11T05:04:01.927Z,193.73
2023-04-11T05:05:01.344Z,194.99
2023-04-11T05:06:01.332Z,192.61
2023-04-11T05:07:01.333Z,195.20
2023-04-11T05:08:01.353Z,192.97
2023-04-11T05:09:01.372Z,192.02
2023-04-11T05:10:01.444Z,192.79
2023-04-11T05:11:01.389Z,192.79
2023-04-11T05:12:01.374Z,193.20
2023-04-11T05:13:01.387Z,193.61
2023-04-11T05:14:01.406Z,193.36
2023-04-11T05:15:01.468Z,195.14
2023-04-11T05:16:01.426Z,193.40
2023-04-11T05:17:01.441Z,190.93
2023-04-11T05:18:01.460Z,192.98
2023-04-11T05:19:01.480Z,194.31
2023-04-11T05:20:01.502Z,194.91
2023-04-11T05:21:01.533Z,191.10
2023-04-11T05:22:01.462Z,195.44
2023-04-11T05:23:01.495Z,192.82
2023-04-11T05:24:01.496Z,196.53
2023-04-11T05:25:01.503Z,209.87
2023-04-11T05:26:01.494Z,213.38
2023-04-11T05:27:01.528Z,224.88
2023-04-11T05:28:01.502Z,232.92
2023-04-11T05:29:01.510Z,244.03
2023-04-11T05:30:01.617Z,251.56
2023-04-11T05:31:01.561Z,248.59
2023-04-11T05:32:01.569Z,247.75
2023-04-11T05:33:02.496Z,250.03
2023-04-11T05:34:01.607Z,250.00
2023-04-11T05:35:03.366Z,249.52
2023-04-11T05:36:02.524Z,250.57
2023-04-11T05:37:03.006Z,250.95
2023-04-11T05:38:02.026Z,253.08
2023-04-11T05:39:02.066Z,259.82
2023-04-11T05:40:02.124Z,274.28
2023-04-11T05:41:02.146Z,295.78
2023-04-11T05:42:02.213Z,283.43
2023-04-11T05:43:02.160Z,271.95
2023-04-11T05:44:02.184Z,263.80
2023-04-11T05:45:02.357Z,252.61
2023-04-11T05:46:02.304Z,250.00
2023-04-11T05:47:02.213Z,249.40
2023-04-11T05:48:02.262Z,250.00
2023-04-11T05:49:02.228Z,249.84
2023-04-11T05:50:02.230Z,250.15
2023-04-11T05:51:02.231Z,250.00
2023-04-11T05:52:02.215Z,250.00
2023-04-11T05:53:02.219Z,250.11
2023-04-11T05:54:02.232Z,250.28
2023-04-11T05:55:02.214Z,250.73
2023-04-11T05:56:02.215Z,249.86
2023-04-11T05:57:02.252Z,249.31
2023-04-11T05:58:02.242Z,250.00
2023-04-11T05:59:02.199Z,250.00
2023-04-11T06:00:02.265Z,250.00
2023-04-11T06:01:02.180Z,249.50
2023-04-11T06:02:02.923Z,250.00
2023-04-11T06:03:02.225Z,250.00
2023-04-11T06:04:02.556Z,250.00
2023-04-11T06:05:02.206Z,250.15
2023-04-11T06:06:02.160Z,250.00
2023-04-11T06:07:02.264Z,249.80
2023-04-11T06:08:02.152Z,250.00
2023-04-11T06:09:02.188Z,249.54
2023-04-11T06:10:02.245Z,250.00
2023-04-11T06:11:02.279Z,249.74
2023-04-11T06:12:02.253Z,249.89
2023-04-11T06:13:02.271Z,249.73
2023-04-11T06:14:02.286Z,249.98
2023-04-11T06:15:02.317Z,250.00
2023-04-11T06:16:02.405Z,249.93
2023-04-11T06:17:02.350Z,250.00
2023-04-11T06:18:02.371Z,250.00
2023-04-11T06:19:02.359Z,250.00
2023-04-11T06:20:04.789Z,250.00
2023-04-11T06:21:02.372Z,248.21
2023-04-11T06:22:02.400Z,248.51
2023-04-11T06:23:02.364Z,248.49
2023-04-11T06:24:02.292Z,244.62
2023-04-11T06:25:02.270Z,244.86
2023-04-11T06:26:02.261Z,243.44
2023-04-11T06:27:02.247Z,243.89
2023-04-11T06:28:02.270Z,241.72
2023-04-11T06:29:02.208Z,242.92
2023-04-11T06:30:02.199Z,241.65
2023-04-11T06:31:02.230Z,241.91
2023-04-11T06:32:02.183Z,239.69
2023-04-11T06:33:02.170Z,240.12
2023-04-11T06:34:02.177Z,238.93
2023-04-11T06:35:02.144Z,238.18
2023-04-11T06:36:04.162Z,237.86
2023-04-11T06:37:02.122Z,237.90
2023-04-11T06:38:02.117Z,237.98
2023-04-11T06:39:02.124Z,238.10
2023-04-11T06:40:02.138Z,237.08
2023-04-11T06:41:02.099Z,235.95
2023-04-11T06:42:02.176Z,234.94
2023-04-11T06:43:02.097Z,233.81
2023-04-11T06:44:02.142Z,234.12
2023-04-11T06:45:02.087Z,232.76
2023-04-11T06:46:02.083Z,232.05
2023-04-11T06:47:02.112Z,230.85
2023-04-11T06:48:02.165Z,231.54
2023-04-11T06:49:02.083Z,230.73
2023-04-11T06:50:02.095Z,229.85
2023-04-11T06:51:02.108Z,229.10
2023-04-11T06:52:02.073Z,229.15
2023-04-11T06:53:03.070Z,229.26
2023-04-11T06:54:02.069Z,229.23
2023-04-11T06:55:02.064Z,228.66
2023-04-11T06:56:02.073Z,227.06
2023-04-11T06:57:02.073Z,225.91
2023-04-11T06:58:02.058Z,226.03
2023-04-11T06:59:02.062Z,225.36
2023-04-11T07:00:02.161Z,224.60
2023-04-11T07:01:02.061Z,225.09
2023-04-11T07:02:02.201Z,223.63
2023-04-11T07:03:02.242Z,223.92
2023-04-11T07:04:02.304Z,223.41
2023-04-11T07:05:02.204Z,224.10
2023-04-11T07:06:02.194Z,223.93
2023-04-11T07:07:02.238Z,223.87
2023-04-11T07:08:02.272Z,222.48
2023-04-11T07:09:02.355Z,221.36
2023-04-11T07:10:02.395Z,221.20
2023-04-11T07:11:02.444Z,220.81
2023-04-11T07:12:02.501Z,221.61
2023-04-11T07:13:02.540Z,220.46
2023-04-11T07:14:02.612Z,220.89
2023-04-11T07:15:02.680Z,220.18
2023-04-11T07:16:02.732Z,219.46
2023-04-11T07:17:03.723Z,219.51
2023-04-11T07:18:02.719Z,219.51
2023-04-11T07:19:02.712Z,218.37
2023-04-11T07:20:02.697Z,219.33
2023-04-11T07:21:02.670Z,217.58
2023-04-11T07:22:02.671Z,217.98
2023-04-11T07:23:02.695Z,217.43
2023-04-11T07:24:02.721Z,218.35
2023-04-11T07:25:02.686Z,217.24
2023-04-11T07:26:02.719Z,210.79
2023-04-11T07:27:02.789Z,197.71
2023-04-11T07:28:02.845Z,165.65
2023-04-11T07:29:03.030Z,149.87
2023-04-11T07:30:02.886Z,138.38
2023-04-11T07:31:02.876Z,129.64
2023-04-11T07:32:02.915Z,123.24
2023-04-11T07:33:02.980Z,111.18
2023-04-11T07:34:02.929Z,100.54
2023-04-11T07:35:02.949Z,94.57
2023-04-11T07:36:03.002Z,89.66
2023-04-11T07:37:02.998Z,88.43
2023-04-11T07:38:03.016Z,97.32
2023-04-11T07:39:03.082Z,107.22
2023-04-11T07:40:03.050Z,99.05
2023-04-11T07:41:03.079Z,105.41
2023-04-11T07:42:03.055Z,99.28
2023-04-11T07:43:03.081Z,99.42
2023-04-11T07:44:03.168Z,104.95
2023-04-11T07:45:03.209Z,109.89
2023-04-11T07:46:03.305Z,111.53
2023-04-11T07:47:03.327Z,112.09
2023-04-11T07:48:03.405Z,113.35
2023-04-11T07:49:03.411Z,115.52
2023-04-11T07:50:03.452Z,114.55
2023-04-11T07:51:03.464Z,111.38
2023-04-11T07:52:03.485Z,113.71
2023-04-11T07:53:03.501Z,112.72
2023-04-11T07:54:03.539Z,116.86
2023-04-11T07:55:03.550Z,115.15
2023-04-11T07:56:03.569Z,117.62
2023-04-11T07:57:03.783Z,119.50
2023-04-11T07:58:03.601Z,119.82
2023-04-11T07:59:03.675Z,119.78
2023-04-11T08:00:03.622Z,124.64
2023-04-11T08:01:03.628Z,125.95
2023-04-11T08:02:03.690Z,125.80
2023-04-11T08:03:03.834Z,126.31
2023-04-11T08:04:04.090Z,127.06
2023-04-11T08:05:03.721Z,130.13
2023-04-11T08:06:04.493Z,130.64
2023-04-11T08:07:03.631Z,129.93
2023-04-11T08:08:03.722Z,128.89
2023-04-11T08:09:03.634Z,128.40
2023-04-11T08:10:03.614Z,129.91
2023-04-11T08:11:03.696Z,131.47
2023-04-11T08:12:03.600Z,128.18
2023-04-11T08:13:03.663Z,133.54
2023-04-11T08:14:03.600Z,126.45
2023-04-11T08:15:03.615Z,130.07
2023-04-11T08:16:03.610Z,135.50
2023-04-11T08:17:04.018Z,142.49
2023-04-11T08:18:04.616Z,142.70
2023-04-11T08:19:03.578Z,143.46
2023-04-11T08:20:03.557Z,145.42
2023-04-11T08:21:03.553Z,149.34
2023-04-11T08:22:03.541Z,160.97
2023-04-11T08:23:05.775Z,160.82
2023-04-11T08:24:03.554Z,161.20
2023-04-11T08:25:03.497Z,162.17
2023-04-11T08:26:04.009Z,165.00
2023-04-11T08:27:03.481Z,166.64
2023-04-11T08:28:03.530Z,170.74
2023-04-11T08:29:03.555Z,177.24
2023-04-11T08:30:03.601Z,179.86
2023-04-11T08:31:03.805Z,182.50
2023-04-11T08:32:03.698Z,186.71
2023-04-11T08:33:03.836Z,189.27
2023-04-11T08:34:06.187Z,192.28
2023-04-11T08:35:03.767Z,195.16
2023-04-11T08:36:03.760Z,197.04
2023-04-11T08:37:03.834Z,200.72
2023-04-11T08:38:03.705Z,202.63
2023-04-11T08:39:03.687Z,205.19
2023-04-11T08:40:03.656Z,208.20
2023-04-11T08:41:03.682Z,212.12
2023-04-11T08:42:03.629Z,213.72
2023-04-11T08:43:03.604Z,216.29
2023-04-11T08:44:03.698Z,218.04
2023-04-11T08:45:03.608Z,222.43
2023-04-11T08:46:03.639Z,224.27
2023-04-11T08:47:03.515Z,226.79
2023-04-11T08:48:03.547Z,228.92
2023-04-11T08:49:03.470Z,228.99
2023-04-11T08:50:03.467Z,232.74
2023-04-11T08:51:03.440Z,235.49
2023-04-11T08:52:03.416Z,236.32
2023-04-11T08:53:03.383Z,239.95
2023-04-11T08:54:03.369Z,241.37
2023-04-11T08:55:03.352Z,242.54
2023-04-11T08:56:03.330Z,245.13
2023-04-11T08:57:03.436Z,246.65
2023-04-11T08:58:03.300Z,248.62
2023-04-11T08:59:03.292Z,248.82
2023-04-11T09:00:03.263Z,250.00
2023-04-11T09:01:03.296Z,250.03
2023-04-11T09:02:03.265Z,250.00
2023-04-11T09:03:03.412Z,250.00
2023-04-11T09:04:03.154Z,250.00
2023-04-11T09:05:03.188Z,249.51
2023-04-11T09:06:03.139Z,249.71
2023-04-11T09:07:03.089Z,248.62
2023-04-11T09:08:03.064Z,249.52
2023-04-11T09:09:03.043Z,249.85
2023-04-11T09:10:03.024Z,250.00
2023-04-11T09:11:02.995Z,249.95
2023-04-11T09:12:03.009Z,249.97
2023-04-11T09:13:02.963Z,249.51
2023-04-11T09:14:02.988Z,249.69
2023-04-11T09:15:02.977Z,249.91
2023-04-11T09:16:03.090Z,249.35
2023-04-11T09:17:03.019Z,250.00
2023-04-11T09:18:03.044Z,250.00
2023-04-11T09:19:03.038Z,249.94
2023-04-11T09:20:03.072Z,250.00
2023-04-11T09:21:03.071Z,248.81
2023-04-11T09:22:03.084Z,249.60
2023-04-11T09:23:03.107Z,246.53
2023-04-11T09:24:03.121Z,245.27
2023-04-11T09:25:03.116Z,246.56
2023-04-11T09:26:03.147Z,245.83
2023-04-11T09:27:03.113Z,246.77
2023-04-11T09:28:03.102Z,248.37
2023-04-11T09:29:03.097Z,248.53
2023-04-11T09:30:03.099Z,248.61
2023-04-11T09:31:03.113Z,249.82
2023-04-11T09:32:03.096Z,249.88
2023-04-11T09:33:03.147Z,248.47
2023-04-11T09:34:03.098Z,249.60
2023-04-11T09:35:03.120Z,249.63
2023-04-11T09:36:03.139Z,249.22
2023-04-11T09:37:03.141Z,249.86
2023-04-11T09:38:03.136Z,250.00
2023-04-11T09:39:03.171Z,249.57
2023-04-11T09:40:04.552Z,249.46
2023-04-11T09:41:03.188Z,249.57
2023-04-11T09:42:03.209Z,249.73
2023-04-11T09:43:03.195Z,250.00
2023-04-11T09:44:03.200Z,249.04
2023-04-11T09:45:03.208Z,249.82
2023-04-11T09:46:03.246Z,248.77
2023-04-11T09:47:04.066Z,248.68
2023-04-11T09:48:03.231Z,249.89
2023-04-11T09:49:03.512Z,249.55
2023-04-11T09:50:03.223Z,249.59
2023-04-11T09:51:03.214Z,250.00
2023-04-11T09:52:03.220Z,250.00
2023-04-11T09:53:03.257Z,249.05
2023-04-11T09:54:03.261Z,249.22
2023-04-11T09:55:03.226Z,249.86
2023-04-11T09:56:03.222Z,249.08
2023-04-11T09:57:03.222Z,250.00
2023-04-11T09:58:03.223Z,249.79
2023-04-11T09:59:03.306Z,249.84
2023-04-11T10:00:03.218Z,248.85
2023-04-11T10:01:03.194Z,248.78
2023-04-11T10:02:03.460Z,249.14
2023-04-11T10:03:03.434Z,249.93
2023-04-11T10:04:03.275Z,249.40
2023-04-11T10:05:03.422Z,249.01
2023-04-11T10:06:03.425Z,249.88
2023-04-11T10:07:03.495Z,249.99
2023-04-11T10:08:03.602Z,249.83
2023-04-11T10:09:03.551Z,249.62
2023-04-11T10:10:03.574Z,248.45
2023-04-11T10:11:03.518Z,247.76
2023-04-11T10:12:03.520Z,247.49
2023-04-11T10:13:03.485Z,246.93
2023-04-11T10:14:03.586Z,245.22
2023-04-11T10:15:03.566Z,244.11
2023-04-11T10:16:03.633Z,243.51
2023-04-11T10:17:03.543Z,242.40
2023-04-11T10:18:03.624Z,242.42
2023-04-11T10:19:03.554Z,241.29
2023-04-11T10:20:03.568Z,240.32
2023-04-11T10:21:03.574Z,240.22
2023-04-11T10:22:04.605Z,239.37
2023-04-11T10:23:03.623Z,239.62
2023-04-11T10:24:03.626Z,238.59
2023-04-11T10:25:03.671Z,237.31
2023-04-11T10:26:04.537Z,237.06
2023-04-11T10:27:03.692Z,236.67
2023-04-11T10:28:03.778Z,235.81
2023-04-11T10:29:03.759Z,235.29
2023-04-11T10:30:03.806Z,234.80
2023-04-11T10:31:03.871Z,234.18
2023-04-11T10:32:03.912Z,234.39
2023-04-11T10:33:03.927Z,232.82
2023-04-11T10:34:03.979Z,232.52
2023-04-11T10:35:04.087Z,232.34
2023-04-11T10:36:04.048Z,231.88
2023-04-11T10:37:04.076Z,231.50
2023-04-11T10:38:04.130Z,230.49
2023-04-11T10:39:04.201Z,230.45
2023-04-11T10:40:04.241Z,230.63
2023-04-11T10:41:05.216Z,230.67
2023-04-11T10:42:04.268Z,230.28
2023-04-11T10:43:04.181Z,228.84
2023-04-11T10:44:04.168Z,228.87
2023-04-11T10:45:04.143Z,227.98
2023-04-11T10:46:04.120Z,228.38
2023-04-11T10:47:04.133Z,227.73
2023-04-11T10:48:04.150Z,227.39
2023-04-11T10:49:04.084Z,226.50
2023-04-11T10:50:04.114Z,226.37
2023-04-11T10:51:04.153Z,226.23
2023-04-11T10:52:04.177Z,225.84
2023-04-11T10:53:04.228Z,225.57
2023-04-11T10:54:04.425Z,224.81
2023-04-11T10:55:04.317Z,224.80
2023-04-11T10:56:04.340Z,224.59
2023-04-11T10:57:04.369Z,224.38
2023-04-11T10:58:04.432Z,223.87
2023-04-11T10:59:04.479Z,223.18
2023-04-11T11:01:04.665Z,222.07
2023-04-11T11:02:04.714Z,221.40
2023-04-11T11:03:04.836Z,221.52
2023-04-11T11:04:05.188Z,221.10
2023-04-11T11:05:04.840Z,220.85
2023-04-11T11:06:04.787Z,220.29
2023-04-11T11:07:04.826Z,219.70
2023-04-11T11:08:04.834Z,219.54
2023-04-11T11:09:04.868Z,219.06
2023-04-11T11:10:04.904Z,218.37
2023-04-11T11:11:04.909Z,218.79
2023-04-11T11:12:04.940Z,218.87
2023-04-11T11:13:04.975Z,217.66
2023-04-11T11:14:05.007Z,216.73
2023-04-11T11:15:05.071Z,217.31
2023-04-11T11:16:05.113Z,216.93
2023-04-11T11:17:05.322Z,217.20
2023-04-11T11:18:05.219Z,216.57
2023-04-11T11:19:05.174Z,216.58
2023-04-11T11:20:05.186Z,215.93
2023-04-11T11:21:07.390Z,215.25
2023-04-11T11:22:05.201Z,215.30
2023-04-11T11:23:05.187Z,215.22
2023-04-11T11:24:05.175Z,214.50
2023-04-11T11:25:05.162Z,214.63
2023-04-11T11:26:05.173Z,213.77
2023-04-11T11:27:05.144Z,213.31
2023-04-11T11:28:05.139Z,212.52
2023-04-11T11:29:05.113Z,212.74
2023-04-11T11:30:05.099Z,212.00
2023-04-11T11:31:05.082Z,212.16
2023-04-11T11:32:05.131Z,212.18
2023-04-11T11:33:05.110Z,211.41
2023-04-11T11:34:22.039Z,211.25
2023-04-11T11:35:06.054Z,211.34
2023-04-11T11:36:05.045Z,211.29
2023-04-11T11:37:05.069Z,211.14
2023-04-11T11:38:05.006Z,210.92
2023-04-11T11:39:04.999Z,210.33
2023-04-11T11:40:04.972Z,209.45
2023-04-11T11:41:04.952Z,209.53
2023-04-11T11:42:04.967Z,208.91
2023-04-11T11:43:04.934Z,209.57
2023-04-11T11:44:04.932Z,208.33
2023-04-11T11:45:04.915Z,207.73
2023-04-11T11:46:06.406Z,207.82
2023-04-11T11:47:04.939Z,207.34
2023-04-11T11:48:04.946Z,207.85
2023-04-11T11:49:04.931Z,206.34
2023-04-11T11:50:04.926Z,206.38
2023-04-11T11:51:04.949Z,205.80
2023-04-11T11:52:05.011Z,206.08
2023-04-11T11:53:05.038Z,206.05
2023-04-11T11:54:05.085Z,205.27
2023-04-11T11:55:05.099Z,206.09
2023-04-11T11:56:05.154Z,205.65
2023-04-11T11:57:05.157Z,204.85
2023-04-11T11:58:05.185Z,204.65
2023-04-11T11:59:05.190Z,204.87
2023-04-11T12:00:05.203Z,204.06
2023-04-11T12:01:05.233Z,203.97
2023-04-11T12:02:05.290Z,203.71
2023-04-11T12:03:05.297Z,204.18
2023-04-11T12:04:05.387Z,203.37
2023-04-11T12:05:05.446Z,202.57
2023-04-11T12:06:05.230Z,203.55
2023-04-11T12:07:05.982Z,201.81
2023-04-11T12:08:06.087Z,202.34
2023-04-11T12:09:05.236Z,201.40
2023-04-11T12:10:05.238Z,203.01
2023-04-11T12:11:06.063Z,201.20
2023-04-11T12:12:05.219Z,202.61
2023-04-11T12:13:05.221Z,201.36
2023-04-11T12:14:05.215Z,201.22
2023-04-11T12:15:05.208Z,201.72
2023-04-11T12:16:05.235Z,200.47
2023-04-11T12:17:05.204Z,201.08
2023-04-11T12:18:05.306Z,199.45
2023-04-11T12:19:05.211Z,199.55
2023-04-11T12:20:05.203Z,199.08
2023-04-11T12:21:05.208Z,201.01
2023-04-11T12:22:05.196Z,199.59
2023-04-11T12:23:05.206Z,199.23
2023-04-11T12:24:05.187Z,199.68
2023-04-11T12:25:05.196Z,199.44
2023-04-11T12:26:05.194Z,198.63
2023-04-11T12:27:07.303Z,198.14
2023-04-11T12:28:05.173Z,198.25
2023-04-11T12:29:05.162Z,198.09
2023-04-11T12:30:05.161Z,197.39